createdAt,value
2022-10-28T00:00:36.336Z,11.70
2022-10-28T00:03:03.440Z,11.70
2022-10-28T00:05:34.146Z,11.70
2022-10-28T00:08:01.170Z,11.70
2022-10-28T00:10:28.129Z,11.70
2022-10-28T00:12:55.163Z,11.70
2022-10-28T00:15:22.102Z,11.60
2022-10-28T00:17:49.022Z,11.60
2022-10-28T00:20:16.020Z,11.60
2022-10-28T00:22:46.312Z,11.60
2022-10-28T00:25:15.863Z,11.50
2022-10-28T00:27:44.076Z,11.50
2022-10-28T00:30:11.646Z,11.50
2022-10-28T00:32:38.901Z,11.50
2022-10-28T00:35:06.416Z,11.50
2022-10-28T00:37:33.361Z,11.40
2022-10-28T00:40:00.343Z,11.40
2022-10-28T00:42:27.362Z,11.40
2022-10-28T00:45:04.233Z,11.40
2022-10-28T00:47:32.886Z,11.40
2022-10-28T00:50:25.221Z,11.30
2022-10-28T00:52:57.376Z,11.30
2022-10-28T00:55:24.550Z,11.20
2022-10-28T00:57:51.921Z,11.20
2022-10-28T01:00:19.181Z,11.20
2022-10-28T01:02:47.789Z,11.20
2022-10-28T01:05:17.058Z,11.20
2022-10-28T01:07:44.230Z,11.20
2022-10-28T01:10:13.456Z,11.20
2022-10-28T01:13:11.629Z,11.10
2022-10-28T01:15:45.745Z,11.20
2022-10-28T01:18:22.575Z,11.10
2022-10-28T01:21:20.451Z,11.10
2022-10-28T01:24:06.412Z,11.20
2022-10-28T01:27:05.818Z,11.20
2022-10-28T01:29:44.732Z,11.10
2022-10-28T01:32:23.995Z,11.20
2022-10-28T01:35:15.780Z,11.20
2022-10-28T01:38:03.721Z,11.20
2022-10-28T01:40:43.878Z,11.30
2022-10-28T01:43:17.150Z,11.30
2022-10-28T01:45:48.404Z,11.40
2022-10-28T01:48:17.034Z,11.40
2022-10-28T01:50:53.169Z,11.40
2022-10-28T01:53:22.396Z,11.50
2022-10-28T01:55:50.460Z,11.40
2022-10-28T01:58:20.294Z,11.40
2022-10-28T02:00:47.227Z,11.40
2022-10-28T02:03:14.167Z,11.40
2022-10-28T02:05:52.443Z,11.50
2022-10-28T02:08:28.423Z,11.50
2022-10-28T02:11:01.454Z,11.50
2022-10-28T02:13:43.973Z,11.50
2022-10-28T02:16:32.040Z,11.50
2022-10-28T02:19:36.653Z,11.40
2022-10-28T02:22:20.454Z,11.50
2022-10-28T02:24:47.356Z,11.40
2022-10-28T02:27:35.646Z,11.40
2022-10-28T02:30:06.317Z,11.40
2022-10-28T02:32:38.459Z,11.40
2022-10-28T02:35:08.170Z,11.40
2022-10-28T02:37:35.148Z,11.50
2022-10-28T02:40:07.248Z,11.50
2022-10-28T02:42:37.209Z,11.50
2022-10-28T02:45:24.611Z,11.50
2022-10-28T02:47:53.818Z,11.50
2022-10-28T02:50:22.235Z,11.50
2022-10-28T02:52:50.195Z,11.40
2022-10-28T02:55:17.394Z,11.50
2022-10-28T02:57:48.453Z,11.40
2022-10-28T03:00:17.973Z,11.40
2022-10-28T03:02:44.893Z,11.40
2022-10-28T03:05:11.940Z,11.40
2022-10-28T03:07:38.942Z,11.40
2022-10-28T03:10:06.313Z,11.40
2022-10-28T03:12:33.327Z,11.40
2022-10-28T03:15:00.257Z,11.40
2022-10-28T03:17:27.290Z,11.40
2022-10-28T03:19:54.243Z,11.30
2022-10-28T03:22:21.199Z,11.30
2022-10-28T03:24:48.152Z,11.30
2022-10-28T03:27:15.082Z,11.30
2022-10-28T03:29:45.007Z,11.30
2022-10-28T03:32:13.595Z,11.30
2022-10-28T03:34:40.510Z,11.30
2022-10-28T03:37:07.586Z,11.30
2022-10-28T03:39:34.545Z,11.30
2022-10-28T03:42:01.463Z,11.40
2022-10-28T03:44:28.466Z,11.40
2022-10-28T03:46:55.432Z,11.40
2022-10-28T03:49:22.442Z,11.40
2022-10-28T03:51:49.453Z,11.50
2022-10-28T03:54:16.586Z,11.50
2022-10-28T03:56:43.565Z,11.50
2022-10-28T03:59:11.226Z,11.50
2022-10-28T04:01:39.519Z,11.60
2022-10-28T04:04:06.601Z,11.60
2022-10-28T04:06:33.668Z,11.60
2022-10-28T04:09:00.541Z,11.60
2022-10-28T04:11:30.331Z,11.60
2022-10-28T04:13:57.326Z,11.60
2022-10-28T04:16:24.341Z,11.60
2022-10-28T04:18:51.304Z,11.60
2022-10-28T04:21:18.290Z,11.60
2022-10-28T04:23:45.247Z,11.60
2022-10-28T04:26:12.317Z,11.70
2022-10-28T04:28:39.333Z,11.70
2022-10-28T04:31:06.331Z,11.70
2022-10-28T04:33:33.322Z,11.70
2022-10-28T04:36:00.211Z,11.80
2022-10-28T04:38:27.684Z,11.80
2022-10-28T04:40:54.673Z,11.80
2022-10-28T04:43:21.584Z,11.80
2022-10-28T04:45:48.583Z,11.80
2022-10-28T04:48:15.559Z,11.80
2022-10-28T04:50:42.797Z,11.80
2022-10-28T04:53:12.937Z,11.80
2022-10-28T04:55:39.919Z,11.90
2022-10-28T04:58:06.902Z,11.80
2022-10-28T05:00:33.871Z,11.80
2022-10-28T05:03:03.937Z,11.80
2022-10-28T05:05:30.963Z,11.80
2022-10-28T05:07:57.918Z,11.80
2022-10-28T05:10:24.872Z,11.80
2022-10-28T05:12:51.779Z,11.80
2022-10-28T05:15:18.747Z,11.80
2022-10-28T05:17:46.287Z,11.80
2022-10-28T05:20:14.292Z,11.90
2022-10-28T05:22:53.062Z,11.80
2022-10-28T05:25:20.802Z,11.90
2022-10-28T05:27:47.751Z,11.80
2022-10-28T05:30:14.957Z,11.80
2022-10-28T05:32:42.039Z,11.80
2022-10-28T05:35:09.487Z,11.80
2022-10-28T05:37:36.532Z,11.80
2022-10-28T05:40:07.110Z,11.80
2022-10-28T05:42:38.270Z,11.80
2022-10-28T05:45:11.334Z,11.80
2022-10-28T05:47:48.127Z,11.70
2022-10-28T05:50:16.484Z,11.70
2022-10-28T05:53:01.721Z,11.70
2022-10-28T05:55:29.615Z,11.90
2022-10-28T05:57:57.163Z,11.80
2022-10-28T06:00:25.127Z,11.90
2022-10-28T06:02:52.450Z,11.90
2022-10-28T06:05:19.858Z,12.00
2022-10-28T06:07:46.879Z,12.20
2022-10-28T06:10:13.886Z,12.20
2022-10-28T06:12:39.320Z,12.40
2022-10-28T06:15:06.920Z,12.40
2022-10-28T06:17:33.875Z,12.60
2022-10-28T06:20:01.125Z,12.70
2022-10-28T06:22:28.136Z,12.80
2022-10-28T06:24:55.116Z,12.90
2022-10-28T06:27:22.182Z,13.00
2022-10-28T06:29:52.144Z,13.10
2022-10-28T06:32:22.056Z,13.20
2022-10-28T06:34:49.083Z,13.30
2022-10-28T06:37:16.116Z,13.40
2022-10-28T06:39:44.287Z,13.50
2022-10-28T06:42:11.287Z,13.60
2022-10-28T06:44:38.258Z,13.60
2022-10-28T06:47:06.713Z,13.60
2022-10-28T06:49:33.681Z,13.70
2022-10-28T06:52:00.816Z,13.70
2022-10-28T06:54:27.835Z,13.80
2022-10-28T06:56:54.811Z,13.90
2022-10-28T06:59:24.293Z,13.90
2022-10-28T07:01:53.173Z,14.00
2022-10-28T07:04:20.163Z,14.00
2022-10-28T07:06:49.838Z,14.10
2022-10-28T07:09:19.066Z,14.10
2022-10-28T07:11:52.298Z,14.20
2022-10-28T07:14:22.102Z,14.20
2022-10-28T07:16:49.039Z,14.20
2022-10-28T07:19:19.005Z,14.30
2022-10-28T07:21:48.169Z,14.40
2022-10-28T07:24:15.113Z,14.50
2022-10-28T07:26:42.224Z,14.70
2022-10-28T07:29:09.306Z,14.70
2022-10-28T07:31:39.047Z,14.80
2022-10-28T07:34:06.193Z,14.90
2022-10-28T07:36:33.134Z,15.00
2022-10-28T07:39:00.199Z,15.10
2022-10-28T07:41:27.162Z,15.20
2022-10-28T07:43:54.154Z,15.20
2022-10-28T07:46:21.154Z,15.30
2022-10-28T07:48:48.202Z,15.40
2022-10-28T07:51:16.152Z,15.50
2022-10-28T07:53:44.244Z,15.60
2022-10-28T07:56:14.887Z,15.70
2022-10-28T07:58:52.207Z,15.70
2022-10-28T08:01:20.628Z,15.80
2022-10-28T08:03:47.788Z,15.80
2022-10-28T08:06:17.520Z,15.90
2022-10-28T08:08:45.842Z,15.90
2022-10-28T08:11:14.426Z,16.00
2022-10-28T08:13:41.497Z,16.00
2022-10-28T08:16:08.538Z,16.10
2022-10-28T08:18:36.261Z,16.10
2022-10-28T08:21:03.642Z,16.20
2022-10-28T08:23:30.655Z,16.20
2022-10-28T08:25:57.622Z,16.20
2022-10-28T08:28:24.722Z,16.30
2022-10-28T08:31:04.329Z,16.30
2022-10-28T08:33:36.078Z,16.40
2022-10-28T08:36:02.999Z,16.30
2022-10-28T08:38:29.934Z,16.40
2022-10-28T08:41:07.684Z,16.50
2022-10-28T08:43:57.653Z,16.50
2022-10-28T08:46:43.886Z,16.50
2022-10-28T08:49:12.988Z,16.50
2022-10-28T08:52:05.277Z,16.50
2022-10-28T08:55:01.077Z,16.60
2022-10-28T08:57:39.358Z,16.60
2022-10-28T09:00:08.310Z,16.50
2022-10-28T09:02:53.934Z,16.50
2022-10-28T09:05:25.199Z,16.50
2022-10-28T09:07:52.482Z,16.50
2022-10-28T09:10:30.606Z,16.50
2022-10-28T09:13:24.985Z,16.50
2022-10-28T09:15:54.744Z,16.60
2022-10-28T09:18:34.882Z,16.60
2022-10-28T09:21:05.086Z,16.70
2022-10-28T09:23:33.866Z,16.70
2022-10-28T09:26:06.937Z,16.70
2022-10-28T09:28:49.234Z,16.80
2022-10-28T09:31:57.569Z,16.80
2022-10-28T09:34:39.579Z,16.80
2022-10-28T09:37:27.448Z,16.80
2022-10-28T09:39:56.441Z,16.90
2022-10-28T09:42:49.015Z,16.80
2022-10-28T09:45:21.818Z,16.80
2022-10-28T09:48:01.683Z,16.70
2022-10-28T09:50:32.921Z,16.70
2022-10-28T09:53:18.851Z,16.60
2022-10-28T09:55:45.882Z,16.60
2022-10-28T09:58:13.116Z,16.50
2022-10-28T10:00:42.501Z,16.50
2022-10-28T10:03:10.536Z,16.50
2022-10-28T10:05:58.574Z,16.60
2022-10-28T10:08:25.665Z,16.60
2022-10-28T10:11:06.112Z,16.60
2022-10-28T10:13:35.828Z,16.70
2022-10-28T10:16:15.397Z,16.70
2022-10-28T10:18:46.952Z,16.80
2022-10-28T10:21:14.763Z,16.80
2022-10-28T10:23:42.117Z,16.80
2022-10-28T10:26:13.773Z,16.90
2022-10-28T10:28:48.184Z,16.90
2022-10-28T10:31:24.064Z,17.00
2022-10-28T10:33:56.815Z,17.00
2022-10-28T10:36:28.391Z,17.10
2022-10-28T10:38:56.812Z,17.10
2022-10-28T10:41:34.973Z,17.20
2022-10-28T10:44:02.215Z,17.30
2022-10-28T10:46:29.206Z,17.30
2022-10-28T10:49:07.843Z,17.40
2022-10-28T10:51:37.457Z,17.50
2022-10-28T10:54:12.666Z,17.40
2022-10-28T10:56:39.718Z,17.40
2022-10-28T10:59:06.693Z,17.30
2022-10-28T11:01:35.891Z,17.30
2022-10-28T11:04:06.944Z,17.30
2022-10-28T11:06:42.005Z,17.30
2022-10-28T11:09:31.610Z,17.40
2022-10-28T11:11:58.649Z,17.50
2022-10-28T11:14:30.283Z,17.40
2022-10-28T11:16:58.722Z,17.40
2022-10-28T11:19:32.492Z,17.40
2022-10-28T11:22:11.975Z,17.40
2022-10-28T11:24:47.480Z,17.40
2022-10-28T11:27:21.375Z,17.40
2022-10-28T11:29:48.412Z,17.40
2022-10-28T11:32:18.082Z,17.40
2022-10-28T11:34:57.112Z,17.40
2022-10-28T11:37:43.298Z,17.40
2022-10-28T11:40:13.541Z,17.40
2022-10-28T11:43:16.311Z,17.30
2022-10-28T11:45:52.341Z,17.30
2022-10-28T11:48:25.009Z,17.40
2022-10-28T11:50:52.109Z,17.30
2022-10-28T11:53:42.445Z,17.30
2022-10-28T11:56:27.609Z,17.40
2022-10-28T11:59:24.151Z,17.40
2022-10-28T12:02:02.376Z,17.30
2022-10-28T12:04:50.813Z,17.30
2022-10-28T12:07:55.325Z,17.30
2022-10-28T12:10:50.584Z,17.30
2022-10-28T12:13:38.327Z,17.20
2022-10-28T12:16:15.856Z,17.20
2022-10-28T12:18:55.821Z,17.20
2022-10-28T12:24:06.698Z,17.20
2022-10-28T12:26:45.925Z,17.10
2022-10-28T12:29:34.804Z,17.10
2022-10-28T12:32:32.108Z,17.10
2022-10-28T12:35:00.815Z,17.00
2022-10-28T12:37:31.628Z,17.00
2022-10-28T12:40:37.471Z,16.90
2022-10-28T12:43:06.158Z,16.90
2022-10-28T12:45:33.169Z,16.80
2022-10-28T12:48:05.059Z,16.80
2022-10-28T12:50:49.982Z,16.80
2022-10-28T12:53:38.082Z,16.80
2022-10-28T12:56:09.841Z,16.70
2022-10-28T12:58:41.838Z,16.70
2022-10-28T13:01:16.895Z,16.80
2022-10-28T13:03:44.008Z,16.80
2022-10-28T13:06:26.179Z,16.80
2022-10-28T13:09:12.174Z,16.90
2022-10-28T13:11:42.981Z,16.90
2022-10-28T13:14:20.673Z,17.00
2022-10-28T13:16:58.182Z,17.00
2022-10-28T13:19:25.284Z,17.00
2022-10-28T13:22:01.826Z,17.10
2022-10-28T13:24:38.956Z,17.10
2022-10-28T13:27:06.249Z,17.20
2022-10-28T13:29:34.213Z,17.10
2022-10-28T13:32:01.242Z,17.20
2022-10-28T13:34:36.698Z,17.20
2022-10-28T13:37:04.646Z,17.20
2022-10-28T13:39:36.670Z,17.20
2022-10-28T13:42:13.073Z,17.20
2022-10-28T13:44:49.977Z,17.20
2022-10-28T13:47:16.973Z,17.20
2022-10-28T13:50:09.328Z,17.10
2022-10-28T13:52:46.465Z,17.20
2022-10-28T13:55:14.113Z,17.10
2022-10-28T13:57:44.067Z,17.10
2022-10-28T14:00:21.459Z,17.00
2022-10-28T14:02:49.564Z,17.10
2022-10-28T14:05:18.069Z,17.00
2022-10-28T14:07:52.190Z,17.00
2022-10-28T14:10:23.643Z,17.00
2022-10-28T14:15:50.697Z,17.00
2022-10-28T14:18:43.449Z,16.90
2022-10-28T14:21:10.423Z,17.00
2022-10-28T14:23:40.141Z,16.90
2022-10-28T14:26:07.042Z,16.80
2022-10-28T14:28:33.992Z,16.80
2022-10-28T14:31:12.914Z,16.80
2022-10-28T14:33:43.088Z,16.80
2022-10-28T14:36:22.230Z,16.70
2022-10-28T14:39:04.626Z,16.70
2022-10-28T14:41:56.627Z,16.70
2022-10-28T14:44:57.526Z,16.60
2022-10-28T14:47:30.480Z,16.50
2022-10-28T14:50:19.523Z,16.40
2022-10-28T14:52:46.418Z,16.40
2022-10-28T14:55:21.558Z,16.20
2022-10-28T14:57:48.587Z,16.20
2022-10-28T15:00:19.399Z,16.10
2022-10-28T15:02:46.695Z,16.00
2022-10-28T15:05:17.852Z,16.00
2022-10-28T15:07:44.904Z,15.90
2022-10-28T15:10:22.036Z,15.90
2022-10-28T15:12:49.190Z,15.80
2022-10-28T15:15:26.316Z,15.80
2022-10-28T15:17:54.483Z,15.80
2022-10-28T15:20:31.038Z,15.70
2022-10-28T15:23:35.451Z,15.70
2022-10-28T15:26:28.700Z,15.70
2022-10-28T15:28:55.818Z,15.50
2022-10-28T15:31:22.877Z,15.40
2022-10-28T15:33:49.842Z,15.40
2022-10-28T15:36:19.399Z,15.40
2022-10-28T15:38:47.257Z,15.30
2022-10-28T15:41:23.848Z,15.30
2022-10-28T15:44:00.546Z,15.30
2022-10-28T15:46:27.686Z,15.20
2022-10-28T15:48:55.537Z,15.20
2022-10-28T15:51:22.639Z,15.20
2022-10-28T15:53:57.550Z,15.20
2022-10-28T15:56:25.306Z,15.10
2022-10-28T15:59:21.228Z,15.00
2022-10-28T16:01:48.345Z,15.10
2022-10-28T16:04:18.467Z,14.90
2022-10-28T16:06:45.925Z,14.90
2022-10-28T16:09:37.757Z,14.90
2022-10-28T16:12:22.617Z,14.80
2022-10-28T16:14:57.157Z,14.80
2022-10-28T16:17:29.208Z,14.80
2022-10-28T16:20:17.234Z,14.70
2022-10-28T16:22:45.875Z,14.70
2022-10-28T16:25:14.073Z,14.60
2022-10-28T16:27:41.722Z,14.60
2022-10-28T16:30:09.434Z,14.50
2022-10-28T16:32:45.111Z,14.50
2022-10-28T16:35:20.003Z,14.50
2022-10-28T16:37:49.519Z,14.50
2022-10-28T16:40:45.755Z,14.40
2022-10-28T16:43:06.246Z,14.40
2022-10-28T16:45:41.446Z,14.30
2022-10-28T16:48:13.055Z,14.30
2022-10-28T16:50:50.042Z,14.30
2022-10-28T16:53:26.691Z,14.20
2022-10-28T16:56:13.400Z,14.20
2022-10-28T16:58:44.794Z,14.10
2022-10-28T17:02:22.927Z,14.10
2022-10-28T17:05:06.161Z,14.10
2022-10-28T17:07:42.279Z,14.00
2022-10-28T17:10:49.793Z,13.90
2022-10-28T17:13:16.817Z,13.90
2022-10-28T17:15:51.885Z,13.80
2022-10-28T17:18:49.820Z,13.90
2022-10-28T17:21:22.795Z,13.90
2022-10-28T17:23:49.820Z,13.80
2022-10-28T17:29:32.363Z,13.80
2022-10-28T17:32:04.739Z,13.70
2022-10-28T17:34:34.873Z,13.70
2022-10-28T17:37:10.808Z,13.70
2022-10-28T17:39:38.581Z,13.70
2022-10-28T17:43:02.495Z,13.70
2022-10-28T17:46:13.140Z,13.70
2022-10-28T17:48:43.633Z,13.70
2022-10-28T17:51:14.639Z,13.60
2022-10-28T17:53:43.698Z,13.60
2022-10-28T17:56:23.759Z,13.60
2022-10-28T18:02:29.579Z,13.50
2022-10-28T18:05:25.137Z,13.50
2022-10-28T18:08:55.276Z,13.50
2022-10-28T18:12:42.657Z,13.50
2022-10-28T18:15:26.613Z,13.50
2022-10-28T18:17:57.614Z,13.40
2022-10-28T18:24:26.129Z,13.40
2022-10-28T18:26:54.520Z,13.30
2022-10-28T18:29:22.617Z,13.20
2022-10-28T18:31:49.708Z,13.20
2022-10-28T18:34:23.863Z,13.20
2022-10-28T18:47:17.502Z,13.10
2022-10-28T18:50:08.846Z,13.10
2022-10-28T18:53:11.895Z,13.20
2022-10-28T18:59:21.567Z,13.10
2022-10-28T19:01:56.451Z,13.00
2022-10-28T19:04:23.644Z,12.90
2022-10-28T19:06:57.872Z,12.90
2022-10-28T19:09:33.453Z,12.90
2022-10-28T19:12:07.850Z,13.00
2022-10-28T19:14:38.573Z,12.90
2022-10-28T19:17:05.585Z,13.00
2022-10-28T19:19:38.350Z,12.90
2022-10-28T19:22:11.282Z,12.90
2022-10-28T19:24:38.469Z,12.90
2022-10-28T19:27:08.417Z,12.90
2022-10-28T19:32:10.835Z,12.80
2022-10-28T19:34:37.800Z,12.70
2022-10-28T19:37:04.917Z,12.70
2022-10-28T19:39:33.067Z,12.70
2022-10-28T19:42:00.418Z,12.80
2022-10-28T19:44:30.302Z,12.80
2022-10-28T19:47:00.603Z,12.80
2022-10-28T19:49:37.243Z,12.80
2022-10-28T19:52:06.371Z,12.80
2022-10-28T19:54:33.471Z,12.80
2022-10-28T19:57:00.498Z,12.80
2022-10-28T19:59:27.772Z,12.80
2022-10-28T20:01:54.815Z,12.80
2022-10-28T20:04:21.882Z,12.80
2022-10-28T20:06:49.967Z,12.90
2022-10-28T20:09:16.896Z,12.80
2022-10-28T20:11:45.768Z,12.80
2022-10-28T20:14:36.842Z,12.80
2022-10-28T20:17:06.564Z,12.80
2022-10-28T20:19:33.803Z,12.80
2022-10-28T20:22:00.761Z,12.80
2022-10-28T20:24:27.685Z,12.80
2022-10-28T20:26:54.615Z,12.80
2022-10-28T20:29:26.878Z,12.80
2022-10-28T20:31:53.809Z,12.80
2022-10-28T20:34:23.560Z,12.70
2022-10-28T20:36:52.733Z,12.70
2022-10-28T20:39:22.905Z,12.70
2022-10-28T20:41:51.123Z,12.70
2022-10-28T20:44:18.184Z,12.70
2022-10-28T20:46:46.525Z,12.70
2022-10-28T20:49:13.836Z,12.70
2022-10-28T20:51:40.944Z,12.70
2022-10-28T20:54:13.985Z,12.70
2022-10-28T20:56:42.187Z,12.70
2022-10-28T20:59:09.299Z,12.70
2022-10-28T21:01:39.766Z,12.70
2022-10-28T21:04:10.409Z,12.70
2022-10-28T21:06:39.720Z,12.70
2022-10-28T21:09:08.785Z,12.60
2022-10-28T21:11:38.774Z,12.60
2022-10-28T21:14:05.949Z,12.70
2022-10-28T21:16:33.420Z,12.60
2022-10-28T21:19:01.019Z,12.60
2022-10-28T21:21:29.221Z,12.60
2022-10-28T21:23:56.301Z,12.60
2022-10-28T21:26:27.147Z,12.60
2022-10-28T21:28:54.856Z,12.60
2022-10-28T21:31:24.262Z,12.60
2022-10-28T21:33:54.038Z,12.60
2022-10-28T21:36:22.858Z,12.60
2022-10-28T21:38:53.136Z,12.60
2022-10-28T21:41:21.975Z,12.60
2022-10-28T21:43:50.036Z,12.50
2022-10-28T21:46:17.835Z,12.50
2022-10-28T21:48:44.884Z,12.50
2022-10-28T21:51:15.156Z,12.50
2022-10-28T21:53:46.118Z,12.50
2022-10-28T21:56:19.022Z,12.50
2022-10-28T21:58:50.307Z,12.50
2022-10-28T22:01:22.299Z,12.50
2022-10-28T22:03:50.654Z,12.50
2022-10-28T22:06:17.667Z,12.50
2022-10-28T22:08:44.900Z,12.50
2022-10-28T22:11:13.649Z,12.40
2022-10-28T22:13:40.529Z,12.50
2022-10-28T22:16:12.626Z,12.40
2022-10-28T22:18:39.893Z,12.50
2022-10-28T22:21:18.742Z,12.40
2022-10-28T22:23:45.882Z,12.50
2022-10-28T22:26:14.589Z,12.40
2022-10-28T22:28:41.654Z,12.40
2022-10-28T22:31:10.057Z,12.40
2022-10-28T22:33:37.343Z,12.40
2022-10-28T22:36:05.913Z,12.40
2022-10-28T22:38:33.094Z,12.40
2022-10-28T22:41:20.417Z,12.30
2022-10-28T22:43:52.053Z,12.30
2022-10-28T22:46:19.230Z,12.20
2022-10-28T22:48:46.325Z,12.20
2022-10-28T22:51:13.444Z,12.20
2022-10-28T22:53:41.714Z,12.20
2022-10-28T22:56:09.677Z,12.20
2022-10-28T22:58:36.857Z,12.20
2022-10-28T23:01:11.463Z,12.20
2022-10-28T23:03:39.432Z,12.20
2022-10-28T23:06:06.872Z,12.20
2022-10-28T23:08:33.905Z,12.20
2022-10-28T23:11:00.860Z,12.30
2022-10-28T23:13:27.831Z,12.30
2022-10-28T23:15:55.981Z,12.30
2022-10-28T23:18:27.027Z,12.40
2022-10-28T23:20:53.908Z,12.40
2022-10-28T23:23:20.862Z,12.40
2022-10-28T23:25:54.126Z,12.30
2022-10-28T23:28:21.318Z,12.40
2022-10-28T23:30:48.306Z,12.40
2022-10-28T23:33:15.439Z,12.30
2022-10-28T23:35:42.959Z,12.30
2022-10-28T23:38:11.746Z,12.30
2022-10-28T23:40:38.730Z,12.30
2022-10-28T23:43:05.673Z,12.30
2022-10-28T23:45:32.581Z,12.30
2022-10-28T23:47:59.553Z,12.30
2022-10-28T23:50:26.583Z,12.30
2022-10-28T23:52:55.454Z,12.20
2022-10-28T23:55:22.789Z,12.30
2022-10-28T23:57:49.719Z,12.30
